Time;durP1;ratioP1;P1;durP2;ratioP2;P2;SDS_P1;SDS_P2;PMS_P1;PMS_P2;Temp;Humidity;BMP_temperature;BMP_pressure;BME280_temperature;BME280_humidity;BME280_pressure;Samples;Min_cycle;Max_cycle;Signal;HPM_P1;HPM_P2
2021/07/15 00:00:54;;;;;;;2.25;0.28;;;16.10;99.90;;;;;;5034904;28;20037;-75
2021/07/15 00:03:23;;;;;;;1.52;0.30;;;16.20;99.90;;;;;;5051364;28;20044;-75
2021/07/15 00:05:51;;;;;;;2.13;0.30;;;16.20;99.90;;;;;;5037035;28;20058;-75
2021/07/15 00:08:20;;;;;;;1.40;0.30;;;16.20;99.90;;;;;;5030482;28;20112;-75
2021/07/15 00:10:52;;;;;;;0.75;0.30;;;16.20;99.90;;;;;;5035348;28;20038;-75
2021/07/15 00:13:19;;;;;;;0.95;0.50;;;16.20;99.90;;;;;;5035178;28;20041;-75
2021/07/15 00:15:49;;;;;;;1.10;0.45;;;16.20;99.90;;;;;;5036193;28;20463;-75
2021/07/15 00:18:21;;;;;;;1.55;0.70;;;16.20;99.90;;;;;;5051938;28;20476;-76
2021/07/15 00:20:48;;;;;;;2.30;0.90;;;16.10;99.90;;;;;;5035076;28;20021;-76
2021/07/15 00:23:15;;;;;;;3.28;1.10;;;16.10;99.90;;;;;;5034315;28;20052;-76
2021/07/15 00:25:44;;;;;;;3.70;1.30;;;16.10;99.90;;;;;;5035463;28;20057;-75
2021/07/15 00:28:10;;;;;;;3.47;1.30;;;16.00;99.90;;;;;;5034846;28;20438;-75
2021/07/15 00:30:37;;;;;;;4.28;1.10;;;16.00;99.90;;;;;;5035067;28;20037;-75
2021/07/15 00:33:04;;;;;;;2.20;1.35;;;15.90;99.90;;;;;;5034355;28;20404;-75
2021/07/15 00:35:35;;;;;;;2.42;1.30;;;15.90;99.90;;;;;;5036004;28;20046;-75
2021/07/15 00:38:01;;;;;;;;;;;15.90;99.90;;;;;;5034475;28;20041;-75
2021/07/15 00:40:28;;;;;;;3.25;1.08;;;15.80;99.90;;;;;;5034854;28;19909;-74
2021/07/15 00:42:54;;;;;;;1.95;0.77;;;15.80;99.90;;;;;;5035088;28;20474;-74
2021/07/15 00:45:20;;;;;;;2.70;0.50;;;15.80;99.90;;;;;;5035294;28;20041;-75
2021/07/15 00:47:48;;;;;;;3.05;0.63;;;15.80;99.90;;;;;;5050450;28;20048;-75
2021/07/15 00:50:17;;;;;;;0.80;0.40;;;15.80;99.90;;;;;;5034510;28;20037;-75
2021/07/15 00:52:44;;;;;;;1.70;0.52;;;15.80;99.90;;;;;;5034872;28;20045;-76
2021/07/15 00:55:26;;;;;;;2.28;0.57;;;15.80;99.90;;;;;;5034821;28;20044;-76
2021/07/15 00:57:52;;;;;;;0.28;0.28;;;15.80;99.90;;;;;;5034204;28;20029;-76
2021/07/15 01:00:21;;;;;;;3.42;0.95;;;15.80;99.90;;;;;;5034654;28;20427;-76
2021/07/15 01:02:47;;;;;;;1.48;0.45;;;15.80;99.90;;;;;;5040443;28;20045;-76
2021/07/15 01:05:17;;;;;;;0.68;0.20;;;15.80;99.90;;;;;;5044711;28;20368;-75
2021/07/15 01:07:43;;;;;;;0.80;0.40;;;15.80;99.90;;;;;;5038517;28;20379;-76
2021/07/15 01:10:12;;;;;;;1.05;0.25;;;15.80;99.90;;;;;;5035998;28;20041;-76
2021/07/15 01:12:56;;;;;;;0.50;0.30;;;15.80;99.90;;;;;;5035081;28;20045;-76
2021/07/15 01:15:25;;;;;;;1.45;0.38;;;15.70;99.90;;;;;;5034840;28;20037;-77
2021/07/15 01:18:26;;;;;;;0.43;0.20;;;15.80;99.90;;;;;;5032038;28;20045;-76
2021/07/15 01:20:55;;;;;;;;;;;15.80;99.90;;;;;;5046315;28;20033;-73
2021/07/15 01:23:44;;;;;;;0.82;0.40;;;15.80;99.90;;;;;;5034558;28;19921;-76
2021/07/15 01:26:28;;;;;;;1.75;0.50;;;15.70;99.90;;;;;;5033745;28;20375;-76
2021/07/15 01:29:13;;;;;;;1.55;0.40;;;15.70;99.90;;;;;;5033433;28;20034;-75
2021/07/15 01:31:41;;;;;;;0.38;0.30;;;15.70;99.90;;;;;;5041531;28;20049;-76
2021/07/15 01:34:10;;;;;;;2.38;0.50;;;15.70;99.90;;;;;;5033297;28;20033;-76
2021/07/15 01:36:41;;;;;;;1.00;0.30;;;15.70;99.90;;;;;;5033926;28;20048;-76
2021/07/15 01:39:10;;;;;;;0.65;0.40;;;15.70;99.90;;;;;;5033345;28;20029;-76
2021/07/15 01:41:44;;;;;;;0.40;0.30;;;15.60;99.90;;;;;;5045853;28;20034;-76
2021/07/15 01:44:15;;;;;;;0.90;0.40;;;15.60;99.90;;;;;;5033103;28;20395;-76
2021/07/15 01:46:42;;;;;;;1.70;0.40;;;15.50;99.90;;;;;;5031387;28;20040;-76
2021/07/15 01:49:09;;;;;;;0.95;0.50;;;15.50;99.90;;;;;;5052217;28;20482;-76
2021/07/15 01:51:36;;;;;;;0.85;0.40;;;15.60;99.90;;;;;;5035482;28;20395;-76
2021/07/15 01:54:03;;;;;;;1.23;0.40;;;15.50;99.90;;;;;;5035426;28;20049;-76
2021/07/15 01:56:30;;;;;;;1.05;0.40;;;15.50;99.90;;;;;;5048526;28;20048;-76
2021/07/15 01:58:58;;;;;;;0.85;0.50;;;15.50;99.90;;;;;;5041591;28;20033;-76
2021/07/15 02:01:26;;;;;;;0.77;0.38;;;15.50;99.90;;;;;;5042999;28;20053;-76
2021/07/15 02:03:55;;;;;;;1.17;0.32;;;15.50;99.90;;;;;;5054543;28;20041;-76
2021/07/15 02:06:22;;;;;;;1.55;0.43;;;15.40;99.90;;;;;;5033475;28;20029;-76
2021/07/15 02:08:52;;;;;;;1.98;0.32;;;15.50;99.90;;;;;;5032878;28;20033;-76
2021/07/15 02:11:21;;;;;;;0.68;0.40;;;15.50;99.90;;;;;;5033356;28;20052;-76
2021/07/15 02:13:49;;;;;;;1.48;0.40;;;15.50;99.90;;;;;;5033247;28;20026;-76
2021/07/15 02:16:18;;;;;;;1.83;0.30;;;15.50;99.90;;;;;;5032595;28;20041;-76
2021/07/15 02:18:45;;;;;;;0.68;0.40;;;15.40;99.90;;;;;;5032861;28;20056;-75
2021/07/15 02:21:12;;;;;;;2.58;0.40;;;15.40;99.90;;;;;;5033120;28;20399;-75
2021/07/15 02:23:42;;;;;;;0.85;0.20;;;15.40;99.90;;;;;;5032683;28;20364;-74
2021/07/15 02:26:08;;;;;;;0.50;0.30;;;15.40;99.90;;;;;;5032029;28;20467;-75
2021/07/15 02:28:34;;;;;;;3.40;0.60;;;15.40;99.90;;;;;;5032724;28;20034;-75
2021/07/15 02:31:10;;;;;;;1.65;0.47;;;15.40;99.90;;;;;;5032254;28;20029;-75
2021/07/15 02:33:38;;;;;;;2.20;0.40;;;15.40;99.90;;;;;;5032678;28;20054;-75
2021/07/15 02:36:06;;;;;;;1.23;0.60;;;15.40;99.90;;;;;;5031985;28;20128;-75
2021/07/15 02:38:34;;;;;;;1.25;0.40;;;15.40;99.90;;;;;;5032960;28;20040;-75
2021/07/15 02:41:01;;;;;;;2.85;0.50;;;15.40;99.90;;;;;;5032306;28;20026;-75
2021/07/15 02:43:28;;;;;;;1.45;0.73;;;15.40;99.90;;;;;;5032805;28;20053;-76
2021/07/15 02:45:55;;;;;;;3.10;1.33;;;15.40;99.90;;;;;;5033004;28;20045;-75
2021/07/15 02:48:21;;;;;;;2.67;1.20;;;15.30;99.90;;;;;;5032563;28;20037;-75
2021/07/15 02:50:47;;;;;;;3.10;0.98;;;15.30;99.90;;;;;;5032476;28;20022;-75
2021/07/15 02:53:14;;;;;;;4.28;1.15;;;15.40;99.90;;;;;;5032088;28;20033;-76
2021/07/15 02:56:02;;;;;;;2.00;1.00;;;15.30;99.90;;;;;;5032465;28;20032;-75
2021/07/15 02:58:33;;;;;;;1.73;0.77;;;15.30;99.90;;;;;;5039026;28;20398;-76
2021/07/15 03:01:01;;;;;;;2.78;0.80;;;15.30;99.90;;;;;;5040005;28;20040;-76
2021/07/15 03:03:37;;;;;;;4.65;0.80;;;15.30;99.90;;;;;;5039111;28;20046;-76
2021/07/15 03:06:14;;;;;;;1.95;1.05;;;15.30;99.90;;;;;;5032268;28;20037;-75
2021/07/15 03:08:53;;;;;;;0.75;0.57;;;15.30;99.90;;;;;;5032514;28;20022;-76
2021/07/15 03:11:20;;;;;;;0.90;0.43;;;15.30;99.90;;;;;;5031948;28;20455;-76
2021/07/15 03:13:48;;;;;;;1.23;0.63;;;15.30;99.90;;;;;;5032390;28;20037;-76
2021/07/15 03:16:16;;;;;;;3.47;0.90;;;15.30;99.90;;;;;;5032665;28;20049;-76
2021/07/15 03:18:45;;;;;;;3.38;0.80;;;15.20;99.90;;;;;;5032298;28;20105;-76
2021/07/15 03:21:14;;;;;;;1.60;1.02;;;15.30;99.90;;;;;;5044755;28;20038;-76
2021/07/15 03:23:42;;;;;;;6.25;1.38;;;15.30;99.90;;;;;;5019102;28;20045;-76
2021/07/15 03:26:09;;;;;;;1.75;1.00;;;15.30;99.90;;;;;;5032060;28;20040;-76
2021/07/15 03:28:37;;;;;;;1.45;0.80;;;15.30;99.90;;;;;;5051712;28;20040;-76
2021/07/15 03:31:09;;;;;;;1.13;0.65;;;15.20;99.90;;;;;;5034979;28;20395;-76
2021/07/15 03:33:38;;;;;;;2.72;1.23;;;15.30;99.90;;;;;;5035858;28;20052;-76
2021/07/15 03:36:07;;;;;;;1.65;0.90;;;15.30;99.90;;;;;;5035519;28;20041;-75
2021/07/15 03:38:34;;;;;;;5.70;1.27;;;15.30;99.90;;;;;;5045084;28;20029;-76
2021/07/15 03:41:04;;;;;;;2.80;1.02;;;15.30;99.90;;;;;;5020437;28;20376;-76
2021/07/15 03:43:33;;;;;;;3.22;1.20;;;15.30;99.90;;;;;;5036215;28;20049;-75
2021/07/15 03:46:01;;;;;;;2.53;1.23;;;15.30;99.90;;;;;;5035156;28;20033;-76
2021/07/15 03:48:28;;;;;;;2.47;1.10;;;15.30;99.90;;;;;;5050885;28;20410;-76
2021/07/15 03:51:09;;;;;;;2.63;1.17;;;15.20;99.90;;;;;;5035192;28;20045;-76
2021/07/15 03:53:37;;;;;;;1.92;1.48;;;15.20;99.90;;;;;;5050606;28;20041;-76
2021/07/15 03:56:06;;;;;;;3.30;1.45;;;15.20;99.90;;;;;;5035167;28;20034;-76
2021/07/15 03:58:35;;;;;;;3.92;1.92;;;15.20;99.90;;;;;;5044345;28;20049;-76
2021/07/15 04:01:04;;;;;;;1.95;1.50;;;15.20;99.90;;;;;;5043263;28;20425;-75
2021/07/15 04:03:33;;;;;;;4.22;1.30;;;15.20;99.90;;;;;;5041411;28;20044;-76
2021/07/15 04:06:02;;;;;;;5.88;1.65;;;15.20;99.90;;;;;;5035721;28;20052;-76
2021/07/15 04:08:29;;;;;;;2.92;1.52;;;15.20;99.90;;;;;;5036288;28;20029;-76
2021/07/15 04:11:02;;;;;;;2.47;1.70;;;15.30;99.90;;;;;;5036365;28;20451;-76
2021/07/15 04:13:29;;;;;;;2.65;1.70;;;15.30;99.90;;;;;;5039972;28;20045;-76
2021/07/15 04:15:55;;;;;;;2.00;1.45;;;15.30;99.90;;;;;;5049208;28;20055;-77
2021/07/15 04:18:28;;;;;;;3.97;1.70;;;15.30;99.90;;;;;;5070854;28;20048;-76
2021/07/15 04:20:55;;;;;;;2.65;1.95;;;15.30;99.90;;;;;;5044499;28;20032;-78
2021/07/15 04:23:23;;;;;;;2.80;1.60;;;15.30;99.90;;;;;;5052298;28;20038;-78
2021/07/15 04:25:54;;;;;;;4.05;1.45;;;15.40;99.90;;;;;;5053766;28;20024;-77
2021/07/15 04:28:21;;;;;;;3.25;2.15;;;15.40;99.90;;;;;;5050269;28;20458;-77
2021/07/15 04:30:54;;;;;;;4.95;2.17;;;15.40;99.90;;;;;;5051061;28;20041;-77
2021/07/15 04:33:23;;;;;;;2.85;1.85;;;15.50;99.90;;;;;;5039501;28;20053;-75
2021/07/15 04:35:52;;;;;;;3.25;2.13;;;15.50;99.90;;;;;;5036869;28;20037;-75
2021/07/15 04:38:19;;;;;;;4.60;1.83;;;15.50;99.90;;;;;;5021893;28;20041;-75
2021/07/15 04:40:48;;;;;;;3.72;1.75;;;15.60;99.90;;;;;;5037603;28;20045;-76
2021/07/15 04:43:14;;;;;;;1.98;1.48;;;15.60;99.90;;;;;;5035322;28;20033;-77
2021/07/15 04:45:41;;;;;;;3.58;1.38;;;15.60;99.90;;;;;;5028482;28;20037;-77
2021/07/15 04:48:08;;;;;;;3.70;1.35;;;15.60;99.90;;;;;;5043210;28;20056;-77
2021/07/15 04:50:37;;;;;;;2.05;0.82;;;15.70;99.90;;;;;;5034229;28;20049;-76
2021/07/15 04:53:05;;;;;;;5.28;0.85;;;15.70;99.90;;;;;;5036206;28;20037;-76
2021/07/15 04:55:33;;;;;;;2.65;1.30;;;15.70;99.90;;;;;;5035573;28;20037;-76
2021/07/15 04:58:01;;;;;;;1.60;0.52;;;15.80;99.90;;;;;;5034475;28;20037;-76
2021/07/15 05:00:28;;;;;;;1.33;0.77;;;15.70;99.90;;;;;;5034669;28;20037;-76
2021/07/15 05:03:20;;;;;;;1.70;0.80;;;15.70;99.90;;;;;;5034639;28;20048;-76
2021/07/15 05:05:46;;;;;;;1.63;1.10;;;15.80;99.90;;;;;;5034257;28;20045;-76
2021/07/15 05:08:12;;;;;;;3.67;1.13;;;15.80;99.90;;;;;;5035505;28;20044;-76
2021/07/15 05:10:39;;;;;;;1.30;1.02;;;15.90;99.90;;;;;;5034604;28;20461;-76
2021/07/15 05:13:05;;;;;;;1.42;0.82;;;15.80;99.90;;;;;;5033211;28;20045;-76
2021/07/15 05:15:32;;;;;;;2.38;1.13;;;15.80;99.90;;;;;;5033975;28;20041;-76
2021/07/15 05:17:58;;;;;;;8.77;1.15;;;15.90;99.90;;;;;;5034342;28;20025;-76
2021/07/15 05:20:24;;;;;;;1.08;0.60;;;15.90;99.90;;;;;;5034518;28;20055;-76
2021/07/15 05:22:50;;;;;;;1.15;0.60;;;15.90;99.90;;;;;;5041206;28;20033;-77
2021/07/15 05:25:16;;;;;;;1.25;0.45;;;15.90;99.90;;;;;;5034010;28;20235;-77
2021/07/15 05:27:43;;;;;;;2.35;0.68;;;15.80;99.90;;;;;;5033608;28;20053;-77
2021/07/15 05:30:10;;;;;;;2.15;0.60;;;15.80;99.90;;;;;;5033963;28;20056;-77
2021/07/15 05:32:36;;;;;;;7.97;0.98;;;15.80;99.90;;;;;;5033432;28;20053;-78
2021/07/15 05:35:03;;;;;;;2.20;0.63;;;15.90;99.90;;;;;;5046222;28;20040;-78
2021/07/15 05:37:29;;;;;;;1.42;0.73;;;15.90;99.90;;;;;;5038366;28;20034;-76
2021/07/15 05:39:55;;;;;;;3.97;0.50;;;15.90;99.90;;;;;;5049591;28;20132;-77
2021/07/15 05:42:21;;;;;;;1.50;0.68;;;15.90;99.90;;;;;;5033433;28;20037;-77
2021/07/15 05:44:48;;;;;;;2.85;1.02;;;16.00;99.90;;;;;;5043532;28;20029;-77
2021/07/15 05:47:14;;;;;;;2.03;0.57;;;16.10;99.90;;;;;;5037308;28;20037;-76
2021/07/15 05:49:40;;;;;;;0.57;0.40;;;16.20;99.90;;;;;;5043211;28;20025;-77
2021/07/15 05:52:08;;;;;;;2.28;0.90;;;16.20;99.90;;;;;;5065700;28;20031;-76
2021/07/15 05:54:35;;;;;;;1.50;0.50;;;16.20;99.90;;;;;;5053659;28;20510;-77
2021/07/15 05:57:01;;;;;;;1.95;0.45;;;16.30;99.90;;;;;;5054183;28;20064;-78
2021/07/15 05:59:28;;;;;;;1.70;0.30;;;16.50;99.90;;;;;;5044878;28;20025;-77
2021/07/15 06:01:54;;;;;;;0.80;0.32;;;16.60;99.90;;;;;;5034191;28;20033;-77
2021/07/15 06:04:20;;;;;;;3.60;0.50;;;16.70;99.90;;;;;;5040893;28;20048;-77
2021/07/15 06:06:47;;;;;;;0.60;0.30;;;16.80;99.90;;;;;;5055144;28;20481;-77
2021/07/15 06:09:13;;;;;;;2.03;0.32;;;16.80;99.90;;;;;;5047213;28;20040;-76
2021/07/15 06:11:40;;;;;;;1.75;0.60;;;16.70;99.90;;;;;;5027622;28;20494;-77
2021/07/15 06:14:06;;;;;;;3.13;0.43;;;16.70;99.90;;;;;;5034262;28;20033;-77
2021/07/15 06:16:33;;;;;;;1.88;0.63;;;16.60;99.90;;;;;;5033260;28;20371;-77
2021/07/15 06:18:59;;;;;;;1.27;0.60;;;16.40;99.90;;;;;;5032621;28;20459;-76
2021/07/15 06:21:25;;;;;;;7.85;1.15;;;16.20;99.90;;;;;;5033622;28;20030;-77
2021/07/15 06:23:51;;;;;;;0.80;0.52;;;16.20;99.90;;;;;;5016333;28;20502;-76
2021/07/15 06:26:18;;;;;;;0.73;0.50;;;16.20;99.90;;;;;;5043434;28;20398;-76
2021/07/15 06:28:44;;;;;;;2.15;0.77;;;16.30;99.90;;;;;;5060397;28;20040;-76
2021/07/15 06:31:10;;;;;;;2.38;0.70;;;16.30;99.90;;;;;;5051452;28;20029;-76
2021/07/15 06:33:37;;;;;;;1.17;0.70;;;16.40;99.90;;;;;;5042568;28;20042;-76
2021/07/15 06:36:07;;;;;;;1.00;0.55;;;16.50;99.90;;;;;;5042199;28;20028;-75
2021/07/15 06:38:35;;;;;;;0.95;0.50;;;16.60;99.90;;;;;;5036530;28;20391;-75
2021/07/15 06:41:05;;;;;;;2.35;0.70;;;16.70;99.90;;;;;;5034036;28;20033;-76
2021/07/15 06:43:31;;;;;;;3.17;1.00;;;16.90;99.90;;;;;;5044590;28;20041;-75
2021/07/15 06:45:58;;;;;;;1.85;0.63;;;16.90;99.90;;;;;;5043995;28;20036;-75
2021/07/15 06:48:26;;;;;;;1.70;0.60;;;17.10;99.90;;;;;;5040968;28;20382;-75
2021/07/15 06:50:52;;;;;;;3.85;0.70;;;17.30;99.90;;;;;;5040275;28;20383;-75
2021/07/15 06:53:18;;;;;;;0.95;0.43;;;17.60;99.90;;;;;;5032894;28;20040;-75
2021/07/15 06:55:44;;;;;;;1.75;0.60;;;17.60;99.90;;;;;;5032844;28;20478;-75
2021/07/15 06:58:11;;;;;;;1.50;0.50;;;17.50;99.90;;;;;;5016689;28;20034;-75
2021/07/15 07:00:37;;;;;;;1.85;0.68;;;17.60;99.90;;;;;;5032636;28;20398;-75
2021/07/15 07:03:04;;;;;;;2.60;0.73;;;17.70;99.90;;;;;;5034992;28;20042;-75
2021/07/15 07:05:30;;;;;;;4.35;0.98;;;17.50;99.90;;;;;;5037100;28;20049;-75
2021/07/15 07:07:56;;;;;;;3.53;1.00;;;17.30;99.90;;;;;;5036465;28;20026;-75
2021/07/15 07:10:22;;;;;;;5.10;1.02;;;17.10;99.90;;;;;;5036561;28;20029;-75
2021/07/15 07:12:49;;;;;;;1.23;0.80;;;17.20;99.90;;;;;;5036090;28;20037;-75
2021/07/15 07:15:17;;;;;;;1.63;1.20;;;17.00;99.90;;;;;;5036387;28;20040;-75
2021/07/15 07:17:44;;;;;;;2.50;1.38;;;16.90;99.90;;;;;;5051071;28;20041;-76
2021/07/15 07:20:12;;;;;;;3.97;1.58;;;17.00;99.90;;;;;;5018758;28;20045;-76
2021/07/15 07:22:40;;;;;;;2.70;1.00;;;16.90;99.90;;;;;;5036235;28;20046;-76
2021/07/15 07:25:08;;;;;;;2.50;1.02;;;16.90;99.90;;;;;;5036171;28;20022;-77
2021/07/15 07:27:34;;;;;;;2.22;1.45;;;17.00;99.90;;;;;;5036188;28;20030;-74
2021/07/15 07:30:02;;;;;;;2.55;0.90;;;17.10;99.90;;;;;;5050698;28;20044;-75
2021/07/15 07:32:28;;;;;;;1.40;0.70;;;17.30;99.90;;;;;;5018336;28;20049;-75
2021/07/15 07:34:54;;;;;;;1.27;0.75;;;17.30;99.90;;;;;;5036490;28;20033;-75
2021/07/15 07:37:21;;;;;;;2.95;0.70;;;17.30;99.90;;;;;;5034508;28;20045;-76
2021/07/15 07:39:47;;;;;;;1.40;0.47;;;17.40;99.90;;;;;;5046284;28;20033;-76
2021/07/15 07:42:14;;;;;;;1.02;0.80;;;17.60;99.90;;;;;;5070630;28;20037;-76
2021/07/15 07:44:40;;;;;;;1.27;0.73;;;17.60;99.90;;;;;;5050480;28;20486;-75
2021/07/15 07:47:06;;;;;;;1.33;0.73;;;17.50;99.90;;;;;;5054869;28;20498;-75
2021/07/15 07:49:33;;;;;;;1.67;1.00;;;17.80;99.90;;;;;;5040321;28;20037;-75
2021/07/15 07:51:59;;;;;;;1.45;0.60;;;18.20;99.90;;;;;;5051942;28;20029;-75
2021/07/15 07:54:25;;;;;;;0.73;0.50;;;18.80;99.90;;;;;;5035385;28;20033;-75
2021/07/15 07:56:51;;;;;;;0.75;0.50;;;19.10;99.90;;;;;;5035649;28;20038;-75
2021/07/15 07:59:18;;;;;;;1.38;0.60;;;19.60;99.90;;;;;;5028845;28;20033;-75
2021/07/15 08:01:44;;;;;;;2.85;0.52;;;19.40;99.90;;;;;;5036427;28;20052;-74
2021/07/15 08:04:10;;;;;;;1.20;0.77;;;19.40;99.90;;;;;;5036285;28;20045;-75
2021/07/15 08:06:37;;;;;;;2.03;0.60;;;19.30;99.90;;;;;;5037325;28;20041;-75
2021/07/15 08:09:09;;;;;;;2.45;0.90;;;19.70;99.90;;;;;;5029387;28;20034;-74
2021/07/15 08:11:36;;;;;;;1.77;1.08;;;20.40;99.90;;;;;;5036060;28;20040;-75
2021/07/15 08:14:03;;;;;;;1.20;0.80;;;20.50;99.90;;;;;;5032741;28;20041;-74
2021/07/15 08:16:29;;;;;;;3.10;0.95;;;20.10;99.90;;;;;;5036259;28;20478;-75
2021/07/15 08:18:56;;;;;;;1.13;0.70;;;19.80;99.90;;;;;;5035623;28;20371;-75
2021/07/15 08:21:24;;;;;;;0.90;0.75;;;19.80;99.90;;;;;;5051473;28;20036;-75
2021/07/15 08:23:51;;;;;;;0.95;0.65;;;19.80;99.90;;;;;;5036411;28;20060;-75
2021/07/15 08:26:18;;;;;;;1.00;0.75;;;19.90;99.90;;;;;;5035142;28;20037;-75
2021/07/15 08:28:45;;;;;;;2.28;1.15;;;20.40;99.90;;;;;;5035752;28;20045;-75
2021/07/15 08:31:11;;;;;;;1.98;0.80;;;20.60;99.90;;;;;;5035423;28;20029;-75
2021/07/15 08:33:37;;;;;;;1.77;0.98;;;21.00;99.90;;;;;;5036508;28;20041;-75
2021/07/15 08:36:04;;;;;;;0.90;0.70;;;21.30;99.90;;;;;;5051473;28;20048;-76
2021/07/15 08:38:30;;;;;;;1.60;0.80;;;20.90;99.90;;;;;;5037072;28;20045;-75
2021/07/15 08:40:57;;;;;;;0.80;0.68;;;20.70;99.90;;;;;;5036418;28;20061;-75
2021/07/15 08:43:23;;;;;;;2.17;0.70;;;21.30;99.90;;;;;;5036485;28;20037;-74
2021/07/15 08:45:50;;;;;;;1.10;0.50;;;21.60;99.50;;;;;;5018464;28;20052;-75
2021/07/15 08:48:20;;;;;;;0.98;0.77;;;21.10;98.10;;;;;;5036644;28;20060;-75
2021/07/15 08:50:50;;;;;;;0.50;0.50;;;20.60;99.90;;;;;;5060316;28;20034;-75
2021/07/15 08:53:20;;;;;;;0.98;0.65;;;20.60;99.00;;;;;;5035558;28;20041;-75
2021/07/15 08:58:14;;;;;;;1.77;0.90;;;20.70;99.90;;;;;;5034950;28;20490;-75
2021/07/15 09:00:42;;;;;;;1.63;0.70;;;20.60;99.90;;;;;;5035955;28;20108;-75
2021/07/15 09:03:09;;;;;;;0.98;0.60;;;20.50;99.60;;;;;;5035617;28;20041;-74
2021/07/15 09:05:36;;;;;;;1.10;0.70;;;20.60;99.90;;;;;;5035607;28;20041;-75
2021/07/15 09:08:03;;;;;;;2.30;0.77;;;20.40;99.90;;;;;;5035849;28;20045;-74
2021/07/15 09:10:30;;;;;;;1.85;0.80;;;20.00;99.90;;;;;;5035081;28;20049;-75
2021/07/15 09:12:57;;;;;;;1.27;0.85;;;20.00;99.90;;;;;;5035060;28;20364;-75
2021/07/15 09:15:23;;;;;;;0.80;0.60;;;19.80;99.90;;;;;;5034469;28;20398;-75
2021/07/15 09:17:50;;;;;;;3.38;1.27;;;20.00;99.90;;;;;;5049413;28;20113;-76
2021/07/15 09:20:22;;;;;;;1.38;0.75;;;20.10;99.90;;;;;;5039647;28;20032;-75
2021/07/15 09:23:02;;;;;;;1.10;0.77;;;20.10;99.90;;;;;;5054387;28;20047;-74
2021/07/15 09:25:39;;;;;;;1.33;0.75;;;20.60;99.90;;;;;;5058337;28;20040;-75
2021/07/15 09:28:05;;;;;;;1.40;0.65;;;21.80;98.70;;;;;;5026017;28;20045;-75
2021/07/15 09:30:32;;;;;;;1.25;0.77;;;22.50;95.60;;;;;;5035871;28;20030;-74
2021/07/15 09:33:05;;;;;;;1.33;0.63;;;22.70;96.10;;;;;;5036493;28;20058;-74
2021/07/15 09:35:36;;;;;;;1.08;0.80;;;21.80;96.10;;;;;;5024201;28;20049;-75
2021/07/15 09:38:10;;;;;;;1.13;0.82;;;21.50;95.90;;;;;;5054854;28;20034;-74
2021/07/15 09:40:44;;;;;;;1.23;0.70;;;21.50;97.90;;;;;;5054487;28;20045;-74
2021/07/15 09:43:25;;;;;;;1.27;0.93;;;21.60;96.30;;;;;;5035735;28;20041;-74
2021/07/15 09:45:54;;;;;;;1.17;0.73;;;21.50;97.70;;;;;;5034647;28;20036;-75
2021/07/15 09:48:23;;;;;;;1.38;0.90;;;22.00;95.70;;;;;;5033871;28;20033;-74
2021/07/15 09:50:53;;;;;;;3.00;1.00;;;23.10;95.90;;;;;;5034651;28;20041;-74
2021/07/15 09:53:30;;;;;;;1.17;0.65;;;23.20;93.50;;;;;;5034006;28;20052;-74
2021/07/15 09:56:11;;;;;;;1.08;0.75;;;22.50;94.30;;;;;;5034101;28;20037;-74
2021/07/15 09:58:40;;;;;;;6.88;1.75;;;23.00;92.20;;;;;;5033839;28;20053;-74
2021/07/15 10:01:11;;;;;;;2.15;1.00;;;23.10;92.80;;;;;;5032980;28;20049;-74
2021/07/15 10:03:41;;;;;;;4.07;1.05;;;23.10;93.40;;;;;;5043148;28;20051;-75
2021/07/15 10:06:08;;;;;;;1.00;0.80;;;23.40;92.80;;;;;;5033319;28;20041;-74
2021/07/15 10:08:36;;;;;;;1.10;0.77;;;22.20;92.90;;;;;;5050204;28;20045;-74
2021/07/15 10:11:18;;;;;;;1.20;0.70;;;21.40;93.20;;;;;;5033430;28;20036;-73
2021/07/15 10:13:59;;;;;;;2.38;0.90;;;21.10;94.40;;;;;;5033251;28;20036;-74
2021/07/15 10:16:31;;;;;;;1.10;0.70;;;21.20;94.10;;;;;;5032014;28;20049;-75
2021/07/15 10:18:58;;;;;;;0.90;0.70;;;20.90;93.80;;;;;;5033601;28;20060;-79
2021/07/15 10:21:27;;;;;;;2.47;0.70;;;20.70;94.50;;;;;;5032786;28;20046;-75
2021/07/15 10:23:54;;;;;;;1.00;0.80;;;20.30;95.30;;;;;;5032727;28;20060;-73
2021/07/15 10:26:21;;;;;;;0.70;0.60;;;20.30;96.30;;;;;;5032989;28;20034;-74
2021/07/15 10:28:50;;;;;;;1.20;0.90;;;20.40;94.90;;;;;;5045733;28;20036;-76
2021/07/15 10:31:17;;;;;;;1.45;1.02;;;20.40;96.50;;;;;;5032206;28;20046;-76
2021/07/15 10:33:45;;;;;;;1.58;1.00;;;20.30;95.60;;;;;;5033250;28;20048;-76
2021/07/15 10:36:12;;;;;;;3.10;1.25;;;20.00;97.10;;;;;;5031556;28;20079;-76
2021/07/15 10:38:49;;;;;;;1.48;1.23;;;20.00;97.40;;;;;;5032964;28;20029;-75
2021/07/15 10:41:15;;;;;;;3.88;1.55;;;20.30;97.30;;;;;;5050248;28;20471;-75
2021/07/15 10:43:42;;;;;;;1.85;1.48;;;20.50;97.70;;;;;;5013800;28;20038;-75
2021/07/15 10:46:09;;;;;;;2.80;1.65;;;20.50;97.60;;;;;;5047863;28;20025;-75
2021/07/15 10:48:36;;;;;;;1.83;1.58;;;20.50;97.80;;;;;;5046900;28;20026;-75
2021/07/15 10:51:04;;;;;;;3.17;1.38;;;20.70;98.00;;;;;;5032541;28;20033;-76
2021/07/15 10:53:34;;;;;;;2.38;1.58;;;20.50;97.30;;;;;;5039977;28;20041;-75
2021/07/15 10:56:03;;;;;;;1.85;1.55;;;20.80;97.50;;;;;;5044850;28;20037;-76
2021/07/15 10:58:48;;;;;;;2.03;1.45;;;20.80;96.60;;;;;;5061903;28;20037;-76
2021/07/15 11:01:42;;;;;;;1.55;1.30;;;21.00;96.20;;;;;;5053421;28;20025;-76
2021/07/15 11:04:11;;;;;;;1.23;1.02;;;21.30;95.60;;;;;;5043843;28;20041;-76
2021/07/15 11:06:46;;;;;;;1.38;1.00;;;21.10;94.00;;;;;;5033330;28;20372;-75
2021/07/15 11:09:33;;;;;;;1.25;1.10;;;21.40;94.00;;;;;;5015701;28;20030;-75
2021/07/15 11:12:01;;;;;;;5.22;1.20;;;21.80;93.80;;;;;;5057363;28;20033;-75
2021/07/15 11:14:40;;;;;;;10.07;1.75;;;22.30;94.40;;;;;;5031885;28;20038;-75
2021/07/15 11:17:21;;;;;;;1.48;1.00;;;22.60;93.60;;;;;;5032644;28;20030;-75
2021/07/15 11:20:01;;;;;;;2.67;1.05;;;22.50;91.40;;;;;;5032323;28;20490;-75
2021/07/15 11:22:53;;;;;;;1.77;1.00;;;22.50;91.80;;;;;;5032008;28;20494;-74
2021/07/15 11:25:19;;;;;;;1.60;1.20;;;22.00;92.30;;;;;;5048132;28;20291;-75
2021/07/15 11:27:52;;;;;;;1.33;1.10;;;21.40;93.80;;;;;;5031850;28;20043;-75
2021/07/15 11:30:44;;;;;;;1.13;0.88;;;21.60;93.20;;;;;;5044314;28;20025;-74
2021/07/15 11:33:20;;;;;;;1.42;1.00;;;21.70;93.60;;;;;;5047940;28;20388;-74
2021/07/15 11:36:11;;;;;;;1.58;0.90;;;21.90;92.10;;;;;;5012327;28;20038;-75
2021/07/15 11:38:58;;;;;;;0.50;0.50;;;22.90;91.30;;;;;;5012380;28;20042;-75
2021/07/15 11:41:47;;;;;;;0.55;0.40;;;22.70;88.10;;;;;;5011979;28;20034;-75
2021/07/15 11:44:16;;;;;;;1.05;0.60;;;22.50;86.40;;;;;;5011768;28;20152;-76
2021/07/15 11:46:43;;;;;;;1.10;0.75;;;22.40;88.50;;;;;;5012233;28;20034;-75
2021/07/15 11:49:11;;;;;;;0.68;0.50;;;22.60;88.50;;;;;;5029556;28;20042;-75
2021/07/15 11:51:52;;;;;;;0.80;0.60;;;22.50;89.50;;;;;;5016084;28;20041;-75
2021/07/15 11:54:20;;;;;;;0.82;0.65;;;22.50;90.50;;;;;;5015716;28;20053;-74
2021/07/15 11:56:52;;;;;;;1.10;0.65;;;22.60;90.10;;;;;;5015373;28;20477;-75
2021/07/15 11:59:38;;;;;;;1.00;0.82;;;22.40;90.00;;;;;;5015248;28;20033;-75
2021/07/15 12:02:26;;;;;;;1.35;0.93;;;22.20;91.10;;;;;;5015810;28;20472;-75
2021/07/15 12:05:11;;;;;;;0.88;0.70;;;22.50;91.10;;;;;;5015785;28;20053;-75
2021/07/15 12:07:42;;;;;;;1.40;0.82;;;23.30;90.20;;;;;;5015910;28;20526;-75
2021/07/15 12:10:21;;;;;;;0.75;0.57;;;23.50;87.30;;;;;;5015018;28;20042;-75
2021/07/15 12:12:48;;;;;;;1.10;0.60;;;23.00;88.20;;;;;;5015423;28;20403;-75
2021/07/15 12:15:18;;;;;;;0.88;0.52;;;22.70;88.80;;;;;;5014965;28;20038;-78
2021/07/15 12:17:46;;;;;;;;;;;22.80;89.10;;;;;;5016090;28;20034;-75
2021/07/15 12:20:12;;;;;;;0.90;0.55;;;23.10;88.10;;;;;;5015360;28;19909;-75
2021/07/15 12:22:47;;;;;;;1.38;0.70;;;23.70;87.00;;;;;;5014910;28;20045;-75
2021/07/15 12:25:20;;;;;;;0.50;0.50;;;23.80;85.10;;;;;;5015138;28;20047;-75
2021/07/15 12:27:50;;;;;;;0.68;0.40;;;23.40;82.00;;;;;;5015100;28;20034;-75
2021/07/15 12:30:17;;;;;;;;;;;23.20;83.40;;;;;;5026342;28;20463;-75
2021/07/15 12:32:58;;;;;;;1.17;0.60;;;22.90;83.60;;;;;;5037177;28;19921;-75
2021/07/15 12:35:28;;;;;;;1.25;1.00;;;22.90;85.00;;;;;;5034178;28;20044;-76
2021/07/15 12:37:57;;;;;;;1.83;1.00;;;22.90;87.90;;;;;;5034615;28;20043;-80
2021/07/15 12:40:25;;;;;;;1.38;1.27;;;22.50;88.70;;;;;;5048936;28;20040;-80
2021/07/15 12:42:51;;;;;;;1.52;1.08;;;22.30;89.60;;;;;;5052112;28;20409;-80
2021/07/15 12:45:21;;;;;;;1.42;1.13;;;22.40;89.60;;;;;;5062646;28;20051;-80
2021/07/15 12:48:03;;;;;;;2.72;1.23;;;22.50;89.80;;;;;;5017580;28;20515;-82
2021/07/15 12:50:31;;;;;;;1.55;0.93;;;22.40;88.90;;;;;;5046651;28;20036;-79
2021/07/15 12:56:04;;;;;;;1.60;1.13;;;22.80;88.10;;;;;;5039828;23;20077;-78
2021/07/15 12:58:31;;;;;;;1.30;1.00;;;22.90;87.80;;;;;;4955053;28;20385;-80
2021/07/15 13:01:05;;;;;;;1.88;1.20;;;22.70;86.40;;;;;;4954491;29;20042;-79
2021/07/15 13:03:32;;;;;;;1.30;1.20;;;22.50;87.00;;;;;;4954272;29;20035;-79
2021/07/15 13:05:59;;;;;;;1.33;0.80;;;22.60;86.10;;;;;;4953753;28;20039;-78